Dry Prong, LA

2:27 PM CST on December 26, 2014 (GMT -0600)
Fairfield | Change Station
CLOSE
Current Station
Personal Weather Station
Location: Dry Prong, LA
Elevation: 166 ft
Nearby Weather Stations

Elev 166 ft 31.59 °N, 92.60 °W | Updated 5 days ago

Thunderstorm
Thunderstorm
55 °F
Feels Like 55 °F
N
8
Wind Variable Wind from ESE
Gusts 9 mph

Today
High -- | Low -- °F
--% Chance of Precip.
Yesterday
High -- | Low -- °F
Precip. -- in
7:08 AM 5:14 PM
Waxing Crescent, 29% visible
Pressure 30.06 in
Visibility 7.0 miles
Clouds Scattered Clouds 700 ft
Mostly Cloudy 1000 ft
Overcast 1700 ft
Dew Point 55 °F
Humidity 96%
Rainfall 0.00 in
Snow Depth Not available.
UV 1.8 out of 12
Pollen 2.60 out of 12
Air Quality Not available.
Flu Activity Not available.
SPECI KAEX 261956Z 11008KT 7SM SCT007 BKN010 OVC017 13/13 A3006 RMK AO2 CIG 008V011 T01330128

More Conditions Fewer Conditions

Pressure 30.06 in
Visibility 7.0 miles
Clouds Scattered Clouds 700 ft
Mostly Cloudy 1000 ft
Overcast 1700 ft
Dew Point 55 °F
Humidity 96%
Rainfall 0.00 in
Snow Depth Not available.
UV 1.8 out of 12
Pollen 2.60 out of 12
Air Quality Not available.
Flu Activity Not available.
SPECI KAEX 261956Z 11008KT 7SM SCT007 BKN010 OVC017 13/13 A3006 RMK AO2 CIG 008V011 T01330128

More Conditions Fewer Conditions

Nowcast | as of 1:47 PM CST on December 26, 2014

A large area of showers will continue to spread northeast across northcentral Louisiana and Union County Arkansas...through late afternoon. These showers will remain generally east of an El Dorado Arkansas...to Minden and Natchitoches Louisiana line...but gradually decrease in coverage from southwest to northeast. Rainfall amounts will range from several hundredths of an inch to around a tenth of an inch...with isolated higher amounts through 4 PM.

×

10-Day Weather Forecast

Almanac

Astronomy

Dec. 26, 2014 Rise Set
Actual Time
Civil Twilight
Nautical Twilight
Astronomical Twilight
Moon
Length of Visible Light
Length of Day
Tomorrow will be .
, % of the Moon is Illuminated

Today's Extremes

State Highs State Lows

Community

WunderPhotos

Upload Photos

1,780,693 photos uploaded!

WunderBlogs® & News

Nearby

Air Quality

  Air Quality AQ Index Pollutant
Not available.

Snow Depth

Station Depth Elevation

Earthquake Activity

City Distance Mag. Time & Date
Minimum magnitude displayed is 2.5.

Coastal Water Temperatures

Place Temperature

Nearby Weather Stations